sensor_id;sensor_type;location;lat;lon;timestamp;temperature;humidity
18218;DHT22;9234;49.344;11.120;2022-11-04T00:02:14;10.30;99.90
18218;DHT22;9234;49.344;11.120;2022-11-04T00:04:42;10.30;99.90
18218;DHT22;9234;49.344;11.120;2022-11-04T00:07:12;10.30;99.90
18218;DHT22;9234;49.344;11.120;2022-11-04T00:09:54;10.30;99.90
18218;DHT22;9234;49.344;11.120;2022-11-04T00:12:22;10.30;99.90
18218;DHT22;9234;49.344;11.120;2022-11-04T00:14:52;10.30;99.90
18218;DHT22;9234;49.344;11.120;2022-11-04T00:17:40;10.30;99.90
18218;DHT22;9234;49.344;11.120;2022-11-04T00:20:08;10.30;99.90
18218;DHT22;9234;49.344;11.120;2022-11-04T00:22:56;10.30;99.90
18218;DHT22;9234;49.344;11.120;2022-11-04T00:25:41;10.30;99.90
18218;DHT22;9234;49.344;11.120;2022-11-04T00:28:27;10.30;99.90
18218;DHT22;9234;49.344;11.120;2022-11-04T00:31:11;10.30;99.90
18218;DHT22;9234;49.344;11.120;2022-11-04T00:33:57;10.30;99.90
18218;DHT22;9234;49.344;11.120;2022-11-04T00:36:26;10.30;99.90
18218;DHT22;9234;49.344;11.120;2022-11-04T00:38:56;10.30;99.90
18218;DHT22;9234;49.344;11.120;2022-11-04T00:41:24;10.30;99.90
18218;DHT22;9234;49.344;11.120;2022-11-04T00:43:54;10.30;99.90
18218;DHT22;9234;49.344;11.120;2022-11-04T00:46:23;10.30;99.90
18218;DHT22;9234;49.344;11.120;2022-11-04T00:48:52;10.30;99.90
18218;DHT22;9234;49.344;11.120;2022-11-04T00:51:20;10.30;99.90
18218;DHT22;9234;49.344;11.120;2022-11-04T00:53:49;10.30;99.90
18218;DHT22;9234;49.344;11.120;2022-11-04T00:56:19;10.40;99.90
18218;DHT22;9234;49.344;11.120;2022-11-04T00:58:47;10.40;99.90
18218;DHT22;9234;49.344;11.120;2022-11-04T01:01:17;10.40;99.90
18218;DHT22;9234;49.344;11.120;2022-11-04T01:03:48;10.40;99.90
18218;DHT22;9234;49.344;11.120;2022-11-04T01:06:19;10.40;99.90
18218;DHT22;9234;49.344;11.120;2022-11-04T01:08:53;10.50;99.90
18218;DHT22;9234;49.344;11.120;2022-11-04T01:11:23;10.50;99.90
18218;DHT22;9234;49.344;11.120;2022-11-04T01:13:54;10.50;99.90
18218;DHT22;9234;49.344;11.120;2022-11-04T01:16:23;10.50;99.90
18218;DHT22;9234;49.344;11.120;2022-11-04T01:18:53;10.60;99.90
18218;DHT22;9234;49.344;11.120;2022-11-04T01:21:22;10.60;99.90
18218;DHT22;9234;49.344;11.120;2022-11-04T01:23:50;10.60;99.90
18218;DHT22;9234;49.344;11.120;2022-11-04T01:26:20;10.60;99.90
18218;DHT22;9234;49.344;11.120;2022-11-04T01:28:52;10.60;99.90
18218;DHT22;9234;49.344;11.120;2022-11-04T01:31:23;10.60;99.90
18218;DHT22;9234;49.344;11.120;2022-11-04T01:33:54;10.60;99.90
18218;DHT22;9234;49.344;11.120;2022-11-04T01:36:23;10.60;99.90
18218;DHT22;9234;49.344;11.120;2022-11-04T01:38:53;10.60;99.90
18218;DHT22;9234;49.344;11.120;2022-11-04T01:41:25;10.60;99.90
18218;DHT22;9234;49.344;11.120;2022-11-04T01:43:57;10.60;99.90
18218;DHT22;9234;49.344;11.120;2022-11-04T01:46:32;10.60;99.90
18218;DHT22;9234;49.344;11.120;2022-11-04T01:49:13;10.60;99.90
18218;DHT22;9234;49.344;11.120;2022-11-04T01:51:52;10.70;99.90
18218;DHT22;9234;49.344;11.120;2022-11-04T01:54:23;10.60;99.90
18218;DHT22;9234;49.344;11.120;2022-11-04T01:56:52;10.60;99.90
18218;DHT22;9234;49.344;11.120;2022-11-04T01:59:26;10.70;99.90
18218;DHT22;9234;49.344;11.120;2022-11-04T02:01:57;10.60;99.90
18218;DHT22;9234;49.344;11.120;2022-11-04T02:04:25;10.60;99.90
18218;DHT22;9234;49.344;11.120;2022-11-04T02:06:57;10.60;99.90
18218;DHT22;9234;49.344;11.120;2022-11-04T02:09:28;10.60;99.90
18218;DHT22;9234;49.344;11.120;2022-11-04T02:11:58;10.60;99.90
18218;DHT22;9234;49.344;11.120;2022-11-04T02:14:46;10.70;99.90
18218;DHT22;9234;49.344;11.120;2022-11-04T02:17:32;10.70;99.90
18218;DHT22;9234;49.344;11.120;2022-11-04T02:20:26;10.70;99.90
18218;DHT22;9234;49.344;11.120;2022-11-04T02:23:25;10.70;99.90
18218;DHT22;9234;49.344;11.120;2022-11-04T02:26:34;10.70;99.90
18218;DHT22;9234;49.344;11.120;2022-11-04T02:29:33;10.70;99.90
18218;DHT22;9234;49.344;11.120;2022-11-04T02:32:15;10.70;99.90
18218;DHT22;9234;49.344;11.120;2022-11-04T02:34:54;10.70;99.90
18218;DHT22;9234;49.344;11.120;2022-11-04T02:37:35;10.70;99.90
18218;DHT22;9234;49.344;11.120;2022-11-04T02:40:19;10.70;99.90
18218;DHT22;9234;49.344;11.120;2022-11-04T02:42:56;10.70;99.90
18218;DHT22;9234;49.344;11.120;2022-11-04T02:45:36;10.70;99.90
18218;DHT22;9234;49.344;11.120;2022-11-04T02:48:11;10.70;99.90
18218;DHT22;9234;49.344;11.120;2022-11-04T02:50:50;10.70;99.90
18218;DHT22;9234;49.344;11.120;2022-11-04T02:53:24;10.70;99.90
18218;DHT22;9234;49.344;11.120;2022-11-04T02:56:00;10.70;99.90
18218;DHT22;9234;49.344;11.120;2022-11-04T02:58:34;10.70;99.90
18218;DHT22;9234;49.344;11.120;2022-11-04T03:01:11;10.70;99.90
18218;DHT22;9234;49.344;11.120;2022-11-04T03:03:46;10.70;99.90
18218;DHT22;9234;49.344;11.120;2022-11-04T03:06:20;10.70;99.90
18218;DHT22;9234;49.344;11.120;2022-11-04T03:08:52;10.70;99.90
18218;DHT22;9234;49.344;11.120;2022-11-04T03:11:23;10.60;99.90
18218;DHT22;9234;49.344;11.120;2022-11-04T03:13:56;10.60;99.90
18218;DHT22;9234;49.344;11.120;2022-11-04T03:16:32;10.60;99.90
18218;DHT22;9234;49.344;11.120;2022-11-04T03:19:10;10.60;99.90
18218;DHT22;9234;49.344;11.120;2022-11-04T03:21:47;10.60;99.90
18218;DHT22;9234;49.344;11.120;2022-11-04T03:24:21;10.50;99.90
18218;DHT22;9234;49.344;11.120;2022-11-04T03:26:54;10.50;99.90
18218;DHT22;9234;49.344;11.120;2022-11-04T03:29:30;10.50;99.90
18218;DHT22;9234;49.344;11.120;2022-11-04T03:32:06;10.50;99.90
18218;DHT22;9234;49.344;11.120;2022-11-04T03:34:44;10.50;99.90
18218;DHT22;9234;49.344;11.120;2022-11-04T03:37:13;10.50;99.90
18218;DHT22;9234;49.344;11.120;2022-11-04T03:39:41;10.50;99.90
18218;DHT22;9234;49.344;11.120;2022-11-04T03:42:10;10.50;99.90
18218;DHT22;9234;49.344;11.120;2022-11-04T03:44:48;10.40;99.90
18218;DHT22;9234;49.344;11.120;2022-11-04T03:47:20;10.40;99.90
18218;DHT22;9234;49.344;11.120;2022-11-04T03:49:53;10.40;99.90
18218;DHT22;9234;49.344;11.120;2022-11-04T03:52:24;10.40;99.90
18218;DHT22;9234;49.344;11.120;2022-11-04T03:54:52;10.30;99.90
18218;DHT22;9234;49.344;11.120;2022-11-04T03:57:33;10.30;99.90
18218;DHT22;9234;49.344;11.120;2022-11-04T04:00:12;10.40;99.90
18218;DHT22;9234;49.344;11.120;2022-11-04T04:02:57;10.30;99.90
18218;DHT22;9234;49.344;11.120;2022-11-04T04:05:30;10.30;99.90
18218;DHT22;9234;49.344;11.120;2022-11-04T04:08:12;10.30;99.90
18218;DHT22;9234;49.344;11.120;2022-11-04T04:10:55;10.30;99.90
18218;DHT22;9234;49.344;11.120;2022-11-04T04:13:36;10.30;99.90
18218;DHT22;9234;49.344;11.120;2022-11-04T04:16:14;10.30;99.90
18218;DHT22;9234;49.344;11.120;2022-11-04T04:18:53;10.30;99.90
18218;DHT22;9234;49.344;11.120;2022-11-04T04:21:27;10.20;99.90
18218;DHT22;9234;49.344;11.120;2022-11-04T04:24:02;10.20;99.90
18218;DHT22;9234;49.344;11.120;2022-11-04T04:26:52;10.20;99.90
18218;DHT22;9234;49.344;11.120;2022-11-04T04:29:39;10.20;99.90
18218;DHT22;9234;49.344;11.120;2022-11-04T04:32:10;10.20;99.90
18218;DHT22;9234;49.344;11.120;2022-11-04T04:34:42;10.20;99.90
18218;DHT22;9234;49.344;11.120;2022-11-04T04:37:16;10.10;99.90
18218;DHT22;9234;49.344;11.120;2022-11-04T04:39:49;10.10;99.90
18218;DHT22;9234;49.344;11.120;2022-11-04T04:42:39;10.10;99.90
18218;DHT22;9234;49.344;11.120;2022-11-04T04:45:29;10.10;99.90
18218;DHT22;9234;49.344;11.120;2022-11-04T04:47:59;10.00;99.90
18218;DHT22;9234;49.344;11.120;2022-11-04T04:50:32;10.00;99.90
18218;DHT22;9234;49.344;11.120;2022-11-04T04:53:03;10.00;99.90
18218;DHT22;9234;49.344;11.120;2022-11-04T04:55:32;9.90;99.90
18218;DHT22;9234;49.344;11.120;2022-11-04T04:58:07;9.90;99.90
18218;DHT22;9234;49.344;11.120;2022-11-04T05:00:36;9.90;99.90
18218;DHT22;9234;49.344;11.120;2022-11-04T05:03:04;9.90;99.90
18218;DHT22;9234;49.344;11.120;2022-11-04T05:05:34;9.80;99.90
18218;DHT22;9234;49.344;11.120;2022-11-04T05:08:06;9.80;99.90
18218;DHT22;9234;49.344;11.120;2022-11-04T05:10:35;9.80;99.90
18218;DHT22;9234;49.344;11.120;2022-11-04T05:13:03;9.80;99.90
18218;DHT22;9234;49.344;11.120;2022-11-04T05:15:48;9.80;99.90
18218;DHT22;9234;49.344;11.120;2022-11-04T05:18:17;9.80;99.90
18218;DHT22;9234;49.344;11.120;2022-11-04T05:20:47;9.80;99.90
18218;DHT22;9234;49.344;11.120;2022-11-04T05:23:15;9.70;99.90
18218;DHT22;9234;49.344;11.120;2022-11-04T05:25:43;9.70;99.90
18218;DHT22;9234;49.344;11.120;2022-11-04T05:28:11;9.70;99.90
18218;DHT22;9234;49.344;11.120;2022-11-04T05:30:39;9.70;99.90
18218;DHT22;9234;49.344;11.120;2022-11-04T05:33:08;9.70;99.90
18218;DHT22;9234;49.344;11.120;2022-11-04T05:35:36;9.70;99.90
18218;DHT22;9234;49.344;11.120;2022-11-04T05:38:06;9.70;99.90
18218;DHT22;9234;49.344;11.120;2022-11-04T05:40:34;9.70;99.90
18218;DHT22;9234;49.344;11.120;2022-11-04T05:43:03;9.70;99.90
18218;DHT22;9234;49.344;11.120;2022-11-04T05:45:32;9.70;99.90
18218;DHT22;9234;49.344;11.120;2022-11-04T05:48:01;9.80;99.90
18218;DHT22;9234;49.344;11.120;2022-11-04T05:50:32;9.80;99.90
18218;DHT22;9234;49.344;11.120;2022-11-04T05:53:00;9.80;99.90
18218;DHT22;9234;49.344;11.120;2022-11-04T05:55:30;9.80;99.90
18218;DHT22;9234;49.344;11.120;2022-11-04T05:57:58;9.80;99.90
18218;DHT22;9234;49.344;11.120;2022-11-04T06:00:26;9.80;99.90
18218;DHT22;9234;49.344;11.120;2022-11-04T06:02:55;9.80;99.90
18218;DHT22;9234;49.344;11.120;2022-11-04T06:05:24;9.80;99.90
18218;DHT22;9234;49.344;11.120;2022-11-04T06:07:53;9.80;99.90
18218;DHT22;9234;49.344;11.120;2022-11-04T06:10:21;9.80;99.90
18218;DHT22;9234;49.344;11.120;2022-11-04T06:12:51;9.80;99.90
18218;DHT22;9234;49.344;11.120;2022-11-04T06:15:19;9.80;99.90
18218;DHT22;9234;49.344;11.120;2022-11-04T06:17:47;9.80;99.90
18218;DHT22;9234;49.344;11.120;2022-11-04T06:20:16;9.90;99.90
18218;DHT22;9234;49.344;11.120;2022-11-04T06:22:44;9.90;99.90
18218;DHT22;9234;49.344;11.120;2022-11-04T06:25:12;9.90;99.90
18218;DHT22;9234;49.344;11.120;2022-11-04T06:27:40;9.90;99.90
18218;DHT22;9234;49.344;11.120;2022-11-04T06:30:11;9.90;99.90
18218;DHT22;9234;49.344;11.120;2022-11-04T06:32:39;9.90;99.90
18218;DHT22;9234;49.344;11.120;2022-11-04T06:35:07;9.90;99.90
18218;DHT22;9234;49.344;11.120;2022-11-04T06:37:36;9.90;99.90
18218;DHT22;9234;49.344;11.120;2022-11-04T06:40:05;9.90;99.90
18218;DHT22;9234;49.344;11.120;2022-11-04T06:42:34;9.90;99.90
18218;DHT22;9234;49.344;11.120;2022-11-04T06:45:03;9.90;99.90
18218;DHT22;9234;49.344;11.120;2022-11-04T06:47:33;10.00;99.90
18218;DHT22;9234;49.344;11.120;2022-11-04T06:50:01;10.00;99.90
18218;DHT22;9234;49.344;11.120;2022-11-04T06:52:29;9.90;99.90
18218;DHT22;9234;49.344;11.120;2022-11-04T06:54:58;9.90;99.90
18218;DHT22;9234;49.344;11.120;2022-11-04T06:57:26;9.90;99.90
18218;DHT22;9234;49.344;11.120;2022-11-04T06:59:54;9.90;99.90
18218;DHT22;9234;49.344;11.120;2022-11-04T07:02:22;10.00;99.90
18218;DHT22;9234;49.344;11.120;2022-11-04T07:04:52;10.00;99.90
18218;DHT22;9234;49.344;11.120;2022-11-04T07:07:20;10.00;99.90
18218;DHT22;9234;49.344;11.120;2022-11-04T07:09:48;10.00;99.90
18218;DHT22;9234;49.344;11.120;2022-11-04T07:12:16;10.00;99.90
18218;DHT22;9234;49.344;11.120;2022-11-04T07:14:45;10.00;99.90
18218;DHT22;9234;49.344;11.120;2022-11-04T07:17:13;10.00;99.90
18218;DHT22;9234;49.344;11.120;2022-11-04T07:19:41;10.00;99.90
18218;DHT22;9234;49.344;11.120;2022-11-04T07:22:10;10.00;99.90
18218;DHT22;9234;49.344;11.120;2022-11-04T07:24:39;10.00;99.90
18218;DHT22;9234;49.344;11.120;2022-11-04T07:27:07;10.10;99.90
18218;DHT22;9234;49.344;11.120;2022-11-04T07:29:35;10.10;99.90
18218;DHT22;9234;49.344;11.120;2022-11-04T07:32:04;10.10;99.90
18218;DHT22;9234;49.344;11.120;2022-11-04T07:34:32;10.20;99.90
18218;DHT22;9234;49.344;11.120;2022-11-04T07:37:01;10.20;99.90
18218;DHT22;9234;49.344;11.120;2022-11-04T07:39:30;10.20;99.90
18218;DHT22;9234;49.344;11.120;2022-11-04T07:41:58;10.20;99.90
18218;DHT22;9234;49.344;11.120;2022-11-04T07:44:26;10.20;99.90
18218;DHT22;9234;49.344;11.120;2022-11-04T07:46:54;10.30;99.90
18218;DHT22;9234;49.344;11.120;2022-11-04T07:49:24;10.30;99.90
18218;DHT22;9234;49.344;11.120;2022-11-04T07:51:52;10.30;99.90
18218;DHT22;9234;49.344;11.120;2022-11-04T07:54:20;10.40;99.90
18218;DHT22;9234;49.344;11.120;2022-11-04T07:56:50;10.40;99.90
18218;DHT22;9234;49.344;11.120;2022-11-04T07:59:18;10.40;99.90
18218;DHT22;9234;49.344;11.120;2022-11-04T08:01:46;10.40;99.90
18218;DHT22;9234;49.344;11.120;2022-11-04T08:04:14;10.40;99.90
18218;DHT22;9234;49.344;11.120;2022-11-04T08:06:43;10.50;99.90
18218;DHT22;9234;49.344;11.120;2022-11-04T08:09:11;10.50;99.90
18218;DHT22;9234;49.344;11.120;2022-11-04T08:11:40;10.50;99.90
18218;DHT22;9234;49.344;11.120;2022-11-04T08:14:09;10.50;99.90
18218;DHT22;9234;49.344;11.120;2022-11-04T08:16:37;10.60;99.90
18218;DHT22;9234;49.344;11.120;2022-11-04T08:19:06;10.50;99.90
18218;DHT22;9234;49.344;11.120;2022-11-04T08:21:34;10.50;99.90
18218;DHT22;9234;49.344;11.120;2022-11-04T08:24:02;10.50;99.90
18218;DHT22;9234;49.344;11.120;2022-11-04T08:26:31;10.50;99.90
18218;DHT22;9234;49.344;11.120;2022-11-04T08:29:00;10.50;99.90
18218;DHT22;9234;49.344;11.120;2022-11-04T08:31:30;10.50;99.90
18218;DHT22;9234;49.344;11.120;2022-11-04T08:33:59;10.50;99.90
18218;DHT22;9234;49.344;11.120;2022-11-04T08:36:30;10.50;99.90
18218;DHT22;9234;49.344;11.120;2022-11-04T08:39:00;10.50;99.90
18218;DHT22;9234;49.344;11.120;2022-11-04T08:41:36;10.40;99.90
18218;DHT22;9234;49.344;11.120;2022-11-04T08:44:07;10.40;99.90
18218;DHT22;9234;49.344;11.120;2022-11-04T08:46:38;10.40;99.90
18218;DHT22;9234;49.344;11.120;2022-11-04T08:49:08;10.40;99.90
18218;DHT22;9234;49.344;11.120;2022-11-04T08:51:44;10.40;99.90
18218;DHT22;9234;49.344;11.120;2022-11-04T08:54:15;10.30;99.90
18218;DHT22;9234;49.344;11.120;2022-11-04T08:56:43;10.30;99.90
18218;DHT22;9234;49.344;11.120;2022-11-04T08:59:11;10.30;99.90
18218;DHT22;9234;49.344;11.120;2022-11-04T09:01:42;10.30;99.90
18218;DHT22;9234;49.344;11.120;2022-11-04T09:04:11;10.30;99.90
18218;DHT22;9234;49.344;11.120;2022-11-04T09:06:42;10.30;99.90
18218;DHT22;9234;49.344;11.120;2022-11-04T09:09:13;10.40;99.90
18218;DHT22;9234;49.344;11.120;2022-11-04T09:11:43;10.40;99.90
18218;DHT22;9234;49.344;11.120;2022-11-04T09:14:12;10.40;99.90
18218;DHT22;9234;49.344;11.120;2022-11-04T09:16:44;10.40;99.90
18218;DHT22;9234;49.344;11.120;2022-11-04T09:19:12;10.40;99.90
18218;DHT22;9234;49.344;11.120;2022-11-04T09:21:42;10.40;99.90
18218;DHT22;9234;49.344;11.120;2022-11-04T09:24:10;10.40;99.90
18218;DHT22;9234;49.344;11.120;2022-11-04T09:26:39;10.30;99.90
18218;DHT22;9234;49.344;11.120;2022-11-04T09:29:07;10.30;99.90
18218;DHT22;9234;49.344;11.120;2022-11-04T09:31:36;10.30;99.90
18218;DHT22;9234;49.344;11.120;2022-11-04T09:34:08;10.30;99.90
18218;DHT22;9234;49.344;11.120;2022-11-04T09:36:36;10.30;99.90
18218;DHT22;9234;49.344;11.120;2022-11-04T09:39:04;10.30;99.90
18218;DHT22;9234;49.344;11.120;2022-11-04T09:41:55;10.30;99.90
18218;DHT22;9234;49.344;11.120;2022-11-04T09:44:45;10.30;99.90
18218;DHT22;9234;49.344;11.120;2022-11-04T09:47:38;10.30;99.90
18218;DHT22;9234;49.344;11.120;2022-11-04T09:50:17;10.30;99.90
18218;DHT22;9234;49.344;11.120;2022-11-04T09:52:54;10.30;99.90
18218;DHT22;9234;49.344;11.120;2022-11-04T09:55:29;10.30;99.90
18218;DHT22;9234;49.344;11.120;2022-11-04T09:58:01;10.40;99.90
18218;DHT22;9234;49.344;11.120;2022-11-04T10:00:31;10.40;99.90
18218;DHT22;9234;49.344;11.120;2022-11-04T10:03:14;10.40;99.90
18218;DHT22;9234;49.344;11.120;2022-11-04T10:06:06;10.40;99.90
18218;DHT22;9234;49.344;11.120;2022-11-04T10:08:57;10.50;99.90
18218;DHT22;9234;49.344;11.120;2022-11-04T10:11:37;10.50;99.90
18218;DHT22;9234;49.344;11.120;2022-11-04T10:14:31;10.60;99.90
18218;DHT22;9234;49.344;11.120;2022-11-04T10:17:17;10.70;99.90
18218;DHT22;9234;49.344;11.120;2022-11-04T10:20:00;10.70;99.90
18218;DHT22;9234;49.344;11.120;2022-11-04T10:22:54;10.80;99.90
18218;DHT22;9234;49.344;11.120;2022-11-04T10:25:29;10.80;99.90
18218;DHT22;9234;49.344;11.120;2022-11-04T10:28:07;10.90;99.90
18218;DHT22;9234;49.344;11.120;2022-11-04T10:30:40;11.00;99.90
18218;DHT22;9234;49.344;11.120;2022-11-04T10:33:18;11.00;99.90
18218;DHT22;9234;49.344;11.120;2022-11-04T10:35:55;11.20;99.90
18218;DHT22;9234;49.344;11.120;2022-11-04T10:38:33;11.30;99.90
18218;DHT22;9234;49.344;11.120;2022-11-04T10:41:25;11.30;99.90
18218;DHT22;9234;49.344;11.120;2022-11-04T10:44:01;11.40;99.90
18218;DHT22;9234;49.344;11.120;2022-11-04T10:46:44;11.50;99.90
18218;DHT22;9234;49.344;11.120;2022-11-04T10:49:35;11.50;99.90
18218;DHT22;9234;49.344;11.120;2022-11-04T10:52:32;11.60;99.90
18218;DHT22;9234;49.344;11.120;2022-11-04T10:55:08;11.60;99.90
18218;DHT22;9234;49.344;11.120;2022-11-04T10:57:41;11.70;99.90
18218;DHT22;9234;49.344;11.120;2022-11-04T11:00:32;11.70;99.90
18218;DHT22;9234;49.344;11.120;2022-11-04T11:03:07;11.70;99.90
18218;DHT22;9234;49.344;11.120;2022-11-04T11:05:50;11.80;99.90
18218;DHT22;9234;49.344;11.120;2022-11-04T11:08:28;11.80;99.90
18218;DHT22;9234;49.344;11.120;2022-11-04T11:10:58;11.80;99.90
18218;DHT22;9234;49.344;11.120;2022-11-04T11:13:28;11.80;99.90
18218;DHT22;9234;49.344;11.120;2022-11-04T11:16:09;11.80;99.90
18218;DHT22;9234;49.344;11.120;2022-11-04T11:18:39;11.80;99.90
18218;DHT22;9234;49.344;11.120;2022-11-04T11:21:11;11.90;99.90
18218;DHT22;9234;49.344;11.120;2022-11-04T11:23:42;11.90;99.90
18218;DHT22;9234;49.344;11.120;2022-11-04T11:26:15;11.90;99.90
18218;DHT22;9234;49.344;11.120;2022-11-04T11:28:50;11.90;99.90
18218;DHT22;9234;49.344;11.120;2022-11-04T11:31:34;12.00;99.90
18218;DHT22;9234;49.344;11.120;2022-11-04T11:34:11;12.10;99.90
18218;DHT22;9234;49.344;11.120;2022-11-04T11:36:43;12.20;99.90
18218;DHT22;9234;49.344;11.120;2022-11-04T11:39:16;12.20;99.90
18218;DHT22;9234;49.344;11.120;2022-11-04T11:41:51;12.30;99.90
18218;DHT22;9234;49.344;11.120;2022-11-04T11:44:26;12.30;99.90
18218;DHT22;9234;49.344;11.120;2022-11-04T11:47:00;12.40;99.90
18218;DHT22;9234;49.344;11.120;2022-11-04T11:49:31;12.40;99.90
18218;DHT22;9234;49.344;11.120;2022-11-04T11:52:29;12.40;99.90
18218;DHT22;9234;49.344;11.120;2022-11-04T11:55:04;12.40;99.90
18218;DHT22;9234;49.344;11.120;2022-11-04T11:57:46;12.40;99.90
18218;DHT22;9234;49.344;11.120;2022-11-04T12:00:47;12.40;99.90
18218;DHT22;9234;49.344;11.120;2022-11-04T12:03:33;12.40;99.90
18218;DHT22;9234;49.344;11.120;2022-11-04T12:06:36;12.50;99.90
18218;DHT22;9234;49.344;11.120;2022-11-04T12:09:36;12.50;99.90
18218;DHT22;9234;49.344;11.120;2022-11-04T12:12:33;12.60;99.90
18218;DHT22;9234;49.344;11.120;2022-11-04T12:15:24;12.60;99.90
18218;DHT22;9234;49.344;11.120;2022-11-04T12:18:14;12.60;99.90
18218;DHT22;9234;49.344;11.120;2022-11-04T12:21:06;12.60;99.90
18218;DHT22;9234;49.344;11.120;2022-11-04T12:23:45;12.60;99.90
18218;DHT22;9234;49.344;11.120;2022-11-04T12:26:28;12.60;99.90
18218;DHT22;9234;49.344;11.120;2022-11-04T12:29:21;12.60;99.90
18218;DHT22;9234;49.344;11.120;2022-11-04T12:32:10;12.60;99.90
18218;DHT22;9234;49.344;11.120;2022-11-04T12:34:55;12.70;99.90
18218;DHT22;9234;49.344;11.120;2022-11-04T12:37:46;12.70;99.90
18218;DHT22;9234;49.344;11.120;2022-11-04T12:40:28;12.70;99.90
18218;DHT22;9234;49.344;11.120;2022-11-04T12:43:15;12.70;99.90
18218;DHT22;9234;49.344;11.120;2022-11-04T12:45:57;12.80;99.90
18218;DHT22;9234;49.344;11.120;2022-11-04T12:48:41;12.80;99.90
18218;DHT22;9234;49.344;11.120;2022-11-04T12:51:33;12.80;99.90
18218;DHT22;9234;49.344;11.120;2022-11-04T12:54:25;12.80;99.90
18218;DHT22;9234;49.344;11.120;2022-11-04T12:57:12;12.80;99.90
18218;DHT22;9234;49.344;11.120;2022-11-04T13:00:03;12.80;99.90
18218;DHT22;9234;49.344;11.120;2022-11-04T13:02:41;12.80;99.90
18218;DHT22;9234;49.344;11.120;2022-11-04T13:05:34;12.80;99.90
18218;DHT22;9234;49.344;11.120;2022-11-04T13:08:14;12.70;99.90
18218;DHT22;9234;49.344;11.120;2022-11-04T13:10:53;12.70;99.90
18218;DHT22;9234;49.344;11.120;2022-11-04T13:13:28;12.70;99.90
18218;DHT22;9234;49.344;11.120;2022-11-04T13:16:02;12.70;99.90
18218;DHT22;9234;49.344;11.120;2022-11-04T13:18:36;12.70;99.90
18218;DHT22;9234;49.344;11.120;2022-11-04T13:21:10;12.70;99.90
18218;DHT22;9234;49.344;11.120;2022-11-04T13:23:47;12.70;99.90
18218;DHT22;9234;49.344;11.120;2022-11-04T13:26:20;12.70;99.90
18218;DHT22;9234;49.344;11.120;2022-11-04T13:28:55;12.70;99.90
18218;DHT22;9234;49.344;11.120;2022-11-04T13:31:43;12.70;99.90
18218;DHT22;9234;49.344;11.120;2022-11-04T13:34:24;12.70;99.90
18218;DHT22;9234;49.344;11.120;2022-11-04T13:37:10;12.70;99.90
18218;DHT22;9234;49.344;11.120;2022-11-04T13:39:46;12.70;99.90
18218;DHT22;9234;49.344;11.120;2022-11-04T13:42:43;12.70;99.90
18218;DHT22;9234;49.344;11.120;2022-11-04T13:45:55;12.70;99.90
18218;DHT22;9234;49.344;11.120;2022-11-04T13:48:26;12.80;99.90
18218;DHT22;9234;49.344;11.120;2022-11-04T13:50:59;12.70;99.90
18218;DHT22;9234;49.344;11.120;2022-11-04T13:53:44;12.70;99.90
18218;DHT22;9234;49.344;11.120;2022-11-04T13:56:29;12.70;99.90
18218;DHT22;9234;49.344;11.120;2022-11-04T13:59:05;12.70;99.90
18218;DHT22;9234;49.344;11.120;2022-11-04T14:01:45;12.60;99.90
18218;DHT22;9234;49.344;11.120;2022-11-04T14:04:25;12.60;99.90
18218;DHT22;9234;49.344;11.120;2022-11-04T14:06:57;12.60;99.90
18218;DHT22;9234;49.344;11.120;2022-11-04T14:09:34;12.50;99.90
18218;DHT22;9234;49.344;11.120;2022-11-04T14:12:32;12.50;99.90
18218;DHT22;9234;49.344;11.120;2022-11-04T14:15:12;12.40;99.90
18218;DHT22;9234;49.344;11.120;2022-11-04T14:17:59;12.40;99.90
18218;DHT22;9234;49.344;11.120;2022-11-04T14:20:33;12.40;99.90
18218;DHT22;9234;49.344;11.120;2022-11-04T14:23:04;12.40;99.90
18218;DHT22;9234;49.344;11.120;2022-11-04T14:25:38;12.40;99.90
18218;DHT22;9234;49.344;11.120;2022-11-04T14:28:18;12.30;99.90
18218;DHT22;9234;49.344;11.120;2022-11-04T14:30:58;12.30;99.90
18218;DHT22;9234;49.344;11.120;2022-11-04T14:33:38;12.20;99.90
18218;DHT22;9234;49.344;11.120;2022-11-04T14:36:33;12.20;99.90
18218;DHT22;9234;49.344;11.120;2022-11-04T14:39:17;12.20;99.90
18218;DHT22;9234;49.344;11.120;2022-11-04T14:41:52;12.20;99.90
18218;DHT22;9234;49.344;11.120;2022-11-04T14:44:29;12.10;99.90
18218;DHT22;9234;49.344;11.120;2022-11-04T14:47:11;12.10;99.90
18218;DHT22;9234;49.344;11.120;2022-11-04T14:49:45;12.00;99.90
18218;DHT22;9234;49.344;11.120;2022-11-04T14:52:20;12.00;99.90
18218;DHT22;9234;49.344;11.120;2022-11-04T14:54:56;11.90;99.90
18218;DHT22;9234;49.344;11.120;2022-11-04T14:57:34;11.90;99.90
18218;DHT22;9234;49.344;11.120;2022-11-04T15:00:34;11.90;99.90
18218;DHT22;9234;49.344;11.120;2022-11-04T15:03:22;11.90;99.90
18218;DHT22;9234;49.344;11.120;2022-11-04T15:06:13;11.80;99.90
18218;DHT22;9234;49.344;11.120;2022-11-04T15:09:18;11.80;99.90
18218;DHT22;9234;49.344;11.120;2022-11-04T15:11:48;11.80;99.90
18218;DHT22;9234;49.344;11.120;2022-11-04T15:14:31;11.70;99.90
18218;DHT22;9234;49.344;11.120;2022-11-04T15:16:59;11.70;99.90
18218;DHT22;9234;49.344;11.120;2022-11-04T15:19:32;11.70;99.90
18218;DHT22;9234;49.344;11.120;2022-11-04T15:22:03;11.70;99.90
18218;DHT22;9234;49.344;11.120;2022-11-04T15:24:34;11.60;99.90
18218;DHT22;9234;49.344;11.120;2022-11-04T15:27:04;11.60;99.90
18218;DHT22;9234;49.344;11.120;2022-11-04T15:29:33;11.60;99.90
18218;DHT22;9234;49.344;11.120;2022-11-04T15:32:03;11.50;99.90
18218;DHT22;9234;49.344;11.120;2022-11-04T15:34:34;11.50;99.90
18218;DHT22;9234;49.344;11.120;2022-11-04T15:37:04;11.50;99.90
18218;DHT22;9234;49.344;11.120;2022-11-04T15:39:36;11.40;99.90
18218;DHT22;9234;49.344;11.120;2022-11-04T15:42:13;11.40;99.90
18218;DHT22;9234;49.344;11.120;2022-11-04T15:45:24;11.40;99.90
18218;DHT22;9234;49.344;11.120;2022-11-04T15:48:24;11.30;99.90
18218;DHT22;9234;49.344;11.120;2022-11-04T15:53:51;11.30;99.90
18218;DHT22;9234;49.344;11.120;2022-11-04T15:56:24;11.20;99.90
18218;DHT22;9234;49.344;11.120;2022-11-04T15:58:55;11.20;99.90
18218;DHT22;9234;49.344;11.120;2022-11-04T16:01:25;11.20;99.90
18218;DHT22;9234;49.344;11.120;2022-11-04T16:03:56;11.10;99.90
18218;DHT22;9234;49.344;11.120;2022-11-04T16:06:33;11.10;99.90
18218;DHT22;9234;49.344;11.120;2022-11-04T16:09:06;11.10;99.90
18218;DHT22;9234;49.344;11.120;2022-11-04T16:12:03;11.00;99.90
18218;DHT22;9234;49.344;11.120;2022-11-04T16:14:46;11.00;99.90
18218;DHT22;9234;49.344;11.120;2022-11-04T16:17:16;10.90;99.90
18218;DHT22;9234;49.344;11.120;2022-11-04T16:19:49;10.90;99.90
18218;DHT22;9234;49.344;11.120;2022-11-04T16:22:25;10.90;99.90
18218;DHT22;9234;49.344;11.120;2022-11-04T16:24:56;10.80;99.90
18218;DHT22;9234;49.344;11.120;2022-11-04T16:27:28;10.80;99.90
18218;DHT22;9234;49.344;11.120;2022-11-04T16:30:17;10.70;99.90